Time;durP1;ratioP1;P1;durP2;ratioP2;P2;SDS_P1;SDS_P2;PMS_P1;PMS_P2;Temp;Humidity;BMP_temperature;BMP_pressure;BME280_temperature;BME280_humidity;BME280_pressure;Samples;Min_cycle;Max_cycle;Signal;HPM_P1;HPM_P2
2022/10/20 00:00:47;;;;;;;13.23;10.90;;;;;;;;;;5066513;28;20031;-74
2022/10/20 00:03:12;;;;;;;18.43;12.30;;;;;;;;;;5055870;28;20502;-75
2022/10/20 00:05:37;;;;;;;15.45;11.18;;;;;;;;;;5074398;28;20614;-76
2022/10/20 00:08:03;;;;;;;16.05;12.23;;;;;;;;;;5056352;28;20082;-75
2022/10/20 00:10:28;;;;;;;22.48;12.43;;;;;;;;;;5074388;28;20020;-77
2022/10/20 00:12:53;;;;;;;12.73;11.43;;;;;;;;;;5073460;28;20556;-76
2022/10/20 00:15:18;;;;;;;17.13;12.90;;;;;;;;;;5074359;28;20027;-76
2022/10/20 00:17:44;;;;;;;16.67;13.60;;;;;;;;;;5055266;28;20541;-76
2022/10/20 00:20:09;;;;;;;19.73;13.85;;;;;;;;;;5056357;28;20059;-77
2022/10/20 00:22:34;;;;;;;22.55;13.35;;;;;;;;;;5056115;28;20017;-77
2022/10/20 00:25:00;;;;;;;17.77;12.73;;;;;;;;;;5055872;28;20025;-77
2022/10/20 00:27:25;;;;;;;18.95;13.52;;;;;;;;;;5073703;28;20303;-77
2022/10/20 00:29:50;;;;;;;21.30;13.98;;;;;;;;;;5073699;28;20375;-75
2022/10/20 00:32:15;;;;;;;20.08;14.35;;;;;;;;;;5055996;28;20020;-75
2022/10/20 00:34:41;;;;;;;21.10;14.30;;;;;;;;;;5055769;28;20074;-75
2022/10/20 00:37:06;;;;;;;20.25;14.15;;;;;;;;;;5055639;28;20044;-75
2022/10/20 00:39:31;;;;;;;23.35;13.50;;;;;;;;;;5055825;28;20463;-75
2022/10/20 00:41:56;;;;;;;16.60;14.18;;;;;;;;;;5055075;28;20379;-75
2022/10/20 00:44:40;;;;;;;19.33;13.73;;;;;;;;;;5055588;28;20024;-75
2022/10/20 00:47:08;;;;;;;15.82;13.05;;;;;;;;;;5070644;28;20016;-75
2022/10/20 00:49:33;;;;;;;20.45;14.18;;;;;;;;;;5073562;28;20498;-77
2022/10/20 00:51:59;;;;;;;16.58;13.02;;;;;;;;;;5055255;28;20021;-76
2022/10/20 00:54:25;;;;;;;18.85;13.57;;;;;;;;;;5073284;28;20016;-76
2022/10/20 00:56:50;;;;;;;19.33;14.80;;;;;;;;;;5055190;28;20490;-75
2022/10/20 00:59:18;;;;;;;19.70;14.93;;;;;;;;;;5072368;28;20021;-75
2022/10/20 01:01:44;;;;;;;18.17;15.15;;;;;;;;;;5055151;28;20032;-76
2022/10/20 01:04:09;;;;;;;21.60;16.13;;;;;;;;;;5055123;28;20026;-75
2022/10/20 01:06:35;;;;;;;22.20;15.20;;;;;;;;;;5084716;28;20422;-77
2022/10/20 01:09:00;;;;;;;19.75;15.13;;;;;;;;;;5053796;28;20032;-77
2022/10/20 01:11:26;;;;;;;20.73;14.73;;;;;;;;;;5069925;28;20459;-77
2022/10/20 01:14:10;;;;;;;20.55;15.73;;;;;;;;;;5071856;28;20031;-76
2022/10/20 01:16:44;;;;;;;25.17;17.63;;;;;;;;;;5069166;28;20009;-76
2022/10/20 01:19:12;;;;;;;22.13;14.95;;;;;;;;;;5047516;28;20275;-76
2022/10/20 01:21:53;;;;;;;25.25;18.08;;;;;;;;;;5054698;28;20016;-77
2022/10/20 01:24:37;;;;;;;21.27;16.02;;;;;;;;;;5054800;28;20042;-75
2022/10/20 01:27:25;;;;;;;26.90;15.93;;;;;;;;;;5072548;28;20016;-75
2022/10/20 01:29:59;;;;;;;19.08;15.15;;;;;;;;;;5053325;28;20131;-75
2022/10/20 01:32:44;;;;;;;22.52;16.73;;;;;;;;;;5072737;28;20044;-75
2022/10/20 01:35:13;;;;;;;22.58;16.80;;;;;;;;;;5053484;28;20072;-75
2022/10/20 01:37:41;;;;;;;20.83;16.55;;;;;;;;;;5069517;28;20106;-75
2022/10/20 01:40:28;;;;;;;25.02;17.42;;;;;;;;;;5035563;28;20398;-75
2022/10/20 01:42:55;;;;;;;22.58;16.25;;;;;;;;;;5071135;28;20095;-75
2022/10/20 01:45:22;;;;;;;24.27;17.35;;;;;;;;;;5071911;28;20024;-76
2022/10/20 01:47:49;;;;;;;24.45;16.30;;;;;;;;;;5053351;28;20087;-75
2022/10/20 01:50:15;;;;;;;18.38;15.93;;;;;;;;;;5072754;28;20386;-74
2022/10/20 01:52:40;;;;;;;25.35;18.77;;;;;;;;;;5070640;28;20017;-74
2022/10/20 01:55:14;;;;;;;25.40;17.17;;;;;;;;;;5070390;28;20061;-75
2022/10/20 01:57:56;;;;;;;21.13;16.27;;;;;;;;;;5072141;28;20027;-75
2022/10/20 02:00:21;;;;;;;25.23;16.83;;;;;;;;;;5069987;28;20103;-75
2022/10/20 02:03:02;;;;;;;30.38;17.65;;;;;;;;;;5053702;28;20498;-75
2022/10/20 02:05:45;;;;;;;23.80;16.75;;;;;;;;;;5072647;28;20020;-74
2022/10/20 02:08:21;;;;;;;23.25;16.60;;;;;;;;;;5055839;28;20099;-75
2022/10/20 02:10:49;;;;;;;23.30;16.73;;;;;;;;;;5072225;28;20028;-74
2022/10/20 02:13:16;;;;;;;22.42;16.23;;;;;;;;;;5072543;28;20039;-75
2022/10/20 02:15:44;;;;;;;23.15;17.92;;;;;;;;;;5072332;28;20032;-75
2022/10/20 02:18:10;;;;;;;21.92;17.38;;;;;;;;;;5071929;28;20025;-74
2022/10/20 02:20:35;;;;;;;22.65;18.88;;;;;;;;;;5071654;28;20044;-74
2022/10/20 02:23:03;;;;;;;24.75;19.70;;;;;;;;;;5054064;28;20127;-76
2022/10/20 02:25:29;;;;;;;24.08;18.58;;;;;;;;;;5055850;28;20032;-75
2022/10/20 02:27:56;;;;;;;21.80;19.60;;;;;;;;;;5034060;28;20817;-73
2022/10/20 02:30:21;;;;;;;33.20;19.45;;;;;;;;;;5067878;28;20032;-75
2022/10/20 02:32:48;;;;;;;23.90;17.85;;;;;;;;;;5053811;28;20017;-75
2022/10/20 02:35:15;;;;;;;22.40;18.02;;;;;;;;;;5071766;28;20476;-75
2022/10/20 02:37:41;;;;;;;32.15;20.13;;;;;;;;;;5053689;28;20020;-75
2022/10/20 02:40:06;;;;;;;22.35;16.55;;;;;;;;;;5054464;28;20039;-75
2022/10/20 02:42:31;;;;;;;26.85;20.73;;;;;;;;;;5056478;28;20082;-75
2022/10/20 02:44:57;;;;;;;22.83;18.70;;;;;;;;;;5068771;28;20012;-75
2022/10/20 02:47:22;;;;;;;31.35;19.58;;;;;;;;;;5075078;28;20074;-76
2022/10/20 02:49:47;;;;;;;29.70;20.63;;;;;;;;;;5049432;28;20013;-75
2022/10/20 02:52:13;;;;;;;28.85;21.13;;;;;;;;;;5025746;28;20079;-74
2022/10/20 02:54:38;;;;;;;27.85;21.48;;;;;;;;;;5074133;28;20078;-80
2022/10/20 02:57:03;;;;;;;25.52;20.45;;;;;;;;;;5057653;28;20107;-77
2022/10/20 02:59:29;;;;;;;24.20;20.20;;;;;;;;;;5074134;28;20413;-76
2022/10/20 03:01:54;;;;;;;27.52;19.95;;;;;;;;;;5075426;28;20663;-76
2022/10/20 03:04:19;;;;;;;24.00;18.85;;;;;;;;;;5044409;28;20027;-76
2022/10/20 03:06:44;;;;;;;24.35;18.15;;;;;;;;;;5074310;28;20009;-77
2022/10/20 03:09:10;;;;;;;24.95;19.00;;;;;;;;;;5076624;28;20086;-75
2022/10/20 03:11:35;;;;;;;25.77;20.13;;;;;;;;;;5057492;28;20382;-77
2022/10/20 03:14:00;;;;;;;26.65;19.55;;;;;;;;;;5074907;28;20070;-77
2022/10/20 03:16:26;;;;;;;24.98;19.92;;;;;;;;;;5057597;28;20020;-77
2022/10/20 03:18:51;;;;;;;23.05;18.77;;;;;;;;;;5074977;28;20111;-78
2022/10/20 03:21:17;;;;;;;36.35;20.33;;;;;;;;;;5057432;28;20020;-77
2022/10/20 03:23:42;;;;;;;26.15;19.38;;;;;;;;;;5043071;28;20027;-77
2022/10/20 03:26:09;;;;;;;30.10;19.85;;;;;;;;;;5058718;28;20031;-77
2022/10/20 03:28:34;;;;;;;27.80;19.33;;;;;;;;;;5056724;28;20025;-78
2022/10/20 03:30:59;;;;;;;26.13;19.92;;;;;;;;;;5054157;28;20035;-77
2022/10/20 03:33:25;;;;;;;25.08;19.42;;;;;;;;;;5075243;28;20025;-77
2022/10/20 03:35:50;;;;;;;21.20;18.95;;;;;;;;;;5074203;28;20031;-78
2022/10/20 03:38:15;;;;;;;26.52;18.30;;;;;;;;;;5056904;28;20025;-78
2022/10/20 03:40:40;;;;;;;20.60;17.23;;;;;;;;;;5056559;28;20063;-78
2022/10/20 03:43:06;;;;;;;24.73;18.63;;;;;;;;;;5056773;28;20092;-77
2022/10/20 03:45:31;;;;;;;26.30;20.00;;;;;;;;;;5072669;28;20310;-77
2022/10/20 03:47:56;;;;;;;22.90;18.13;;;;;;;;;;5055666;28;20017;-77
2022/10/20 03:50:21;;;;;;;24.27;19.83;;;;;;;;;;5056396;28;20022;-76
2022/10/20 03:52:47;;;;;;;29.85;18.85;;;;;;;;;;5073830;28;20376;-77
2022/10/20 03:55:12;;;;;;;22.90;18.30;;;;;;;;;;5056397;28;20024;-77
2022/10/20 03:57:38;;;;;;;27.38;18.80;;;;;;;;;;5074487;28;20044;-77
2022/10/20 04:00:03;;;;;;;22.88;19.83;;;;;;;;;;5074650;28;20031;-75
2022/10/20 04:02:33;;;;;;;29.67;19.75;;;;;;;;;;5056312;28;20024;-75
2022/10/20 04:04:59;;;;;;;24.83;18.50;;;;;;;;;;5055315;28;20019;-73
2022/10/20 04:07:24;;;;;;;27.63;17.83;;;;;;;;;;5056376;28;20012;-73
2022/10/20 04:09:49;;;;;;;22.47;18.90;;;;;;;;;;5073859;28;20009;-73
2022/10/20 04:12:14;;;;;;;24.80;18.92;;;;;;;;;;5074490;28;20286;-75
2022/10/20 04:14:40;;;;;;;21.48;18.67;;;;;;;;;;5066596;28;20020;-75
2022/10/20 04:17:05;;;;;;;24.02;18.73;;;;;;;;;;5074656;28;20387;-74
2022/10/20 04:19:30;;;;;;;26.98;18.08;;;;;;;;;;5073907;28;20074;-74
2022/10/20 04:21:55;;;;;;;25.13;18.83;;;;;;;;;;5062243;28;20090;-75
2022/10/20 04:24:21;;;;;;;25.58;18.88;;;;;;;;;;5072750;28;20047;-75
2022/10/20 04:26:47;;;;;;;24.85;18.23;;;;;;;;;;5050578;28;20054;-75
2022/10/20 04:29:12;;;;;;;22.58;18.55;;;;;;;;;;5055861;28;20016;-75
2022/10/20 04:31:37;;;;;;;23.52;16.13;;;;;;;;;;5065217;28;20095;-75
2022/10/20 04:34:02;;;;;;;20.85;17.20;;;;;;;;;;5054442;28;20033;-75
2022/10/20 04:36:28;;;;;;;26.10;17.67;;;;;;;;;;5062022;28;20470;-75
2022/10/20 04:38:53;;;;;;;21.95;17.88;;;;;;;;;;5056162;28;20338;-75
2022/10/20 04:41:18;;;;;;;20.10;17.98;;;;;;;;;;5083006;28;20032;-75
2022/10/20 04:43:48;;;;;;;23.07;17.80;;;;;;;;;;5068447;28;20457;-72
2022/10/20 04:46:13;;;;;;;21.80;17.55;;;;;;;;;;5073695;28;20270;-75
2022/10/20 04:48:41;;;;;;;22.92;18.70;;;;;;;;;;5055425;28;20032;-75
2022/10/20 04:51:07;;;;;;;22.70;17.80;;;;;;;;;;5073292;28;20125;-75
2022/10/20 04:53:32;;;;;;;22.88;17.77;;;;;;;;;;5068918;28;20016;-75
2022/10/20 04:55:58;;;;;;;21.02;18.45;;;;;;;;;;5081566;28;20391;-78
2022/10/20 04:58:23;;;;;;;22.70;18.13;;;;;;;;;;5058374;28;20019;-77
2022/10/20 05:00:49;;;;;;;29.70;20.63;;;;;;;;;;5071562;28;20020;-77
2022/10/20 05:03:14;;;;;;;27.85;19.25;;;;;;;;;;5069775;28;20027;-77
2022/10/20 05:05:39;;;;;;;26.65;18.65;;;;;;;;;;5051319;28;20083;-77
2022/10/20 05:08:05;;;;;;;20.63;17.55;;;;;;;;;;5073305;28;20028;-77
2022/10/20 05:10:30;;;;;;;23.77;19.67;;;;;;;;;;5073172;28;20101;-75
2022/10/20 05:12:55;;;;;;;28.15;19.38;;;;;;;;;;5053240;28;20459;-75
2022/10/20 05:15:20;;;;;;;22.17;19.40;;;;;;;;;;5054617;28;20027;-75
2022/10/20 05:17:46;;;;;;;27.45;18.75;;;;;;;;;;5073055;28;20020;-75
2022/10/20 05:20:11;;;;;;;21.00;17.27;;;;;;;;;;5069639;28;20028;-75
2022/10/20 05:22:36;;;;;;;22.08;18.13;;;;;;;;;;5072584;28;20021;-74
2022/10/20 05:25:02;;;;;;;29.05;19.10;;;;;;;;;;5074858;28;20490;-74
2022/10/20 05:27:27;;;;;;;27.92;20.27;;;;;;;;;;5071922;28;20012;-76
2022/10/20 05:29:53;;;;;;;25.80;17.80;;;;;;;;;;5054641;28;20012;-78
2022/10/20 05:32:18;;;;;;;22.92;18.52;;;;;;;;;;5047773;28;20021;-78
2022/10/20 05:34:43;;;;;;;26.58;16.95;;;;;;;;;;5079536;28;20028;-78
2022/10/20 05:37:08;;;;;;;23.60;18.33;;;;;;;;;;5047449;28;20475;-78
2022/10/20 05:39:34;;;;;;;23.38;17.58;;;;;;;;;;5050447;28;20379;-77
2022/10/20 05:41:59;;;;;;;25.15;17.58;;;;;;;;;;5066072;28;20012;-78
2022/10/20 05:44:24;;;;;;;24.00;19.02;;;;;;;;;;5072405;28;20012;-78
2022/10/20 05:46:49;;;;;;;23.88;18.52;;;;;;;;;;5072675;28;20013;-78
2022/10/20 05:49:16;;;;;;;26.70;18.13;;;;;;;;;;5057651;28;20089;-76
2022/10/20 05:51:42;;;;;;;25.23;19.10;;;;;;;;;;5015330;28;20036;-86
2022/10/20 05:54:09;;;;;;;27.27;19.83;;;;;;;;;;5011675;28;20024;-78
2022/10/20 05:56:35;;;;;;;26.45;19.02;;;;;;;;;;5024424;28;20020;-78
2022/10/20 05:59:01;;;;;;;24.60;20.08;;;;;;;;;;5028203;28;20028;-78
2022/10/20 06:01:37;;;;;;;29.48;22.15;;;;;;;;;;5031408;28;20595;-78
2022/10/20 06:04:02;;;;;;;26.60;21.58;;;;;;;;;;5027664;28;20034;-78
2022/10/20 06:06:28;;;;;;;32.97;20.23;;;;;;;;;;5022303;28;20017;-78
2022/10/20 06:08:54;;;;;;;29.08;21.05;;;;;;;;;;5015790;28;20023;-78
2022/10/20 06:11:20;;;;;;;26.20;18.15;;;;;;;;;;5027013;28;20021;-78
2022/10/20 06:13:45;;;;;;;28.30;21.70;;;;;;;;;;5027498;28;20021;-78
2022/10/20 06:16:12;;;;;;;31.20;23.92;;;;;;;;;;5028720;28;20992;-78
2022/10/20 06:18:37;;;;;;;32.97;21.75;;;;;;;;;;5057031;28;20786;-78
2022/10/20 06:21:07;;;;;;;26.52;21.42;;;;;;;;;;5051175;28;20039;-78
2022/10/20 06:23:32;;;;;;;26.40;20.00;;;;;;;;;;5028513;28;20027;-78
2022/10/20 06:26:02;;;;;;;32.90;25.60;;;;;;;;;;5024532;28;20020;-78
2022/10/20 06:28:31;;;;;;;34.28;27.08;;;;;;;;;;5010578;28;20168;-78
2022/10/20 06:30:57;;;;;;;25.95;20.50;;;;;;;;;;5017849;28;20032;-78
2022/10/20 06:33:23;;;;;;;27.30;22.23;;;;;;;;;;5017732;28;20847;-77
2022/10/20 06:35:48;;;;;;;29.05;21.50;;;;;;;;;;5016639;28;20028;-78
2022/10/20 06:38:14;;;;;;;24.08;20.65;;;;;;;;;;5019524;28;20090;-79
2022/10/20 06:40:39;;;;;;;23.40;19.33;;;;;;;;;;5020397;28;20029;-79
2022/10/20 06:43:04;;;;;;;21.05;18.85;;;;;;;;;;5015223;28;20901;-78
2022/10/20 06:45:29;;;;;;;22.20;18.67;;;;;;;;;;5016725;28;20056;-78
2022/10/20 06:47:55;;;;;;;29.70;17.67;;;;;;;;;;5017513;28;20779;-78
2022/10/20 06:50:20;;;;;;;22.15;17.80;;;;;;;;;;5018479;28;20031;-78
2022/10/20 06:52:45;;;;;;;23.67;19.85;;;;;;;;;;5020125;28;20020;-78
2022/10/20 06:55:10;;;;;;;33.65;18.77;;;;;;;;;;5017098;28;20089;-78
2022/10/20 06:57:36;;;;;;;31.53;20.53;;;;;;;;;;5020761;28;20793;-78
2022/10/20 07:00:02;;;;;;;23.60;18.50;;;;;;;;;;5019391;28;21002;-77
2022/10/20 07:02:27;;;;;;;31.23;20.42;;;;;;;;;;5034201;28;20119;-78
2022/10/20 07:04:53;;;;;;;23.30;18.77;;;;;;;;;;5049118;28;20086;-77
2022/10/20 07:07:18;;;;;;;26.43;19.97;;;;;;;;;;5023315;28;20013;-77
2022/10/20 07:09:43;;;;;;;23.50;19.05;;;;;;;;;;5024599;28;20267;-77
2022/10/20 07:12:08;;;;;;;28.63;21.08;;;;;;;;;;5010688;28;20031;-77
2022/10/20 07:14:36;;;;;;;24.37;18.70;;;;;;;;;;5036433;28;20859;-77
2022/10/20 07:17:02;;;;;;;27.73;19.40;;;;;;;;;;5014801;28;20278;-77
2022/10/20 07:19:27;;;;;;;22.63;19.17;;;;;;;;;;5018278;28;20082;-77
2022/10/20 07:21:52;;;;;;;25.33;18.67;;;;;;;;;;5017005;28;20025;-77
2022/10/20 07:24:18;;;;;;;25.58;19.92;;;;;;;;;;5016874;28;20056;-77
2022/10/20 07:26:43;;;;;;;22.15;18.02;;;;;;;;;;5019862;28;20078;-77
2022/10/20 07:29:08;;;;;;;31.02;20.05;;;;;;;;;;5018672;28;20056;-77
2022/10/20 07:31:35;;;;;;;22.50;18.65;;;;;;;;;;5020391;28;20024;-77
2022/10/20 07:34:01;;;;;;;24.90;19.73;;;;;;;;;;5004364;28;20021;-77
2022/10/20 07:36:27;;;;;;;29.00;20.10;;;;;;;;;;5035821;28;20029;-77
2022/10/20 07:38:54;;;;;;;23.27;20.02;;;;;;;;;;5037399;28;20098;-77
2022/10/20 07:41:19;;;;;;;34.65;23.33;;;;;;;;;;5017734;28;20020;-77
2022/10/20 07:43:44;;;;;;;32.58;23.45;;;;;;;;;;5017713;28;20017;-77
2022/10/20 07:46:10;;;;;;;26.77;21.05;;;;;;;;;;5017516;28;20078;-77
2022/10/20 07:48:36;;;;;;;26.83;20.88;;;;;;;;;;5015979;28;20036;-76
2022/10/20 07:51:20;;;;;;;28.17;21.17;;;;;;;;;;5012312;28;20028;-77
2022/10/20 07:53:45;;;;;;;25.20;18.60;;;;;;;;;;5038595;28;20813;-76
2022/10/20 07:56:11;;;;;;;24.10;19.35;;;;;;;;;;5029189;28;20087;-78
2022/10/20 07:58:36;;;;;;;21.55;18.02;;;;;;;;;;5021520;28;20027;-77
2022/10/20 08:01:04;;;;;;;21.40;17.48;;;;;;;;;;5040772;28;20016;-77
2022/10/20 08:03:29;;;;;;;21.60;16.83;;;;;;;;;;5029204;28;20127;-78
2022/10/20 08:05:55;;;;;;;26.73;16.48;;;;;;;;;;5023439;28;20134;-79
2022/10/20 08:08:20;;;;;;;25.80;16.85;;;;;;;;;;5037793;28;20234;-78
2022/10/20 08:10:48;;;;;;;18.90;17.00;;;;;;;;;;5018787;28;20024;-78
2022/10/20 08:13:13;;;;;;;22.27;15.48;;;;;;;;;;5015404;28;20025;-78
2022/10/20 08:15:38;;;;;;;23.42;16.30;;;;;;;;;;5018328;28;20750;-78
2022/10/20 08:18:03;;;;;;;21.20;15.98;;;;;;;;;;5007664;28;20027;-78
2022/10/20 08:20:29;;;;;;;20.65;16.58;;;;;;;;;;5015041;28;20139;-78
2022/10/20 08:22:54;;;;;;;20.67;15.75;;;;;;;;;;5014178;28;20032;-78
2022/10/20 08:25:20;;;;;;;23.55;16.10;;;;;;;;;;5014663;28;20021;-78
2022/10/20 08:27:45;;;;;;;18.55;16.48;;;;;;;;;;5014904;28;20020;-78
2022/10/20 08:30:10;;;;;;;23.15;15.85;;;;;;;;;;5015827;28;20905;-78
2022/10/20 08:32:35;;;;;;;24.42;16.20;;;;;;;;;;5017009;28;20023;-79
2022/10/20 08:35:01;;;;;;;19.95;15.13;;;;;;;;;;5014769;28;20017;-78
2022/10/20 08:37:28;;;;;;;18.00;16.08;;;;;;;;;;5013984;28;20017;-80
2022/10/20 08:39:53;;;;;;;18.40;14.80;;;;;;;;;;5016752;28;20230;-79
2022/10/20 08:42:19;;;;;;;33.85;15.88;;;;;;;;;;5033667;28;20032;-79
2022/10/20 08:44:45;;;;;;;16.83;14.10;;;;;;;;;;5023983;28;20035;-79
2022/10/20 08:47:18;;;;;;;16.17;14.32;;;;;;;;;;5020843;28;20040;-79
2022/10/20 08:49:43;;;;;;;16.40;13.98;;;;;;;;;;5038727;28;20056;-79
2022/10/20 08:52:11;;;;;;;16.20;13.10;;;;;;;;;;5020046;28;20078;-78
2022/10/20 08:54:37;;;;;;;21.95;14.35;;;;;;;;;;5019421;28;20905;-79
2022/10/20 08:57:04;;;;;;;21.02;14.23;;;;;;;;;;5018982;28;20025;-78
2022/10/20 08:59:34;;;;;;;15.95;13.38;;;;;;;;;;5020047;28;20025;-78
2022/10/20 09:02:00;;;;;;;15.27;13.68;;;;;;;;;;5019800;28;20027;-78
2022/10/20 09:04:26;;;;;;;17.15;13.50;;;;;;;;;;5017754;28;20024;-78
2022/10/20 09:07:00;;;;;;;18.20;13.75;;;;;;;;;;5016560;28;20020;-78
2022/10/20 09:09:27;;;;;;;18.77;13.90;;;;;;;;;;5018723;28;20021;-80
2022/10/20 09:11:53;;;;;;;18.58;14.65;;;;;;;;;;5026863;28;20292;-80
2022/10/20 09:14:19;;;;;;;16.73;13.75;;;;;;;;;;5021085;28;20859;-82
2022/10/20 09:16:45;;;;;;;18.95;14.70;;;;;;;;;;5026242;28;20139;-79
2022/10/20 09:19:20;;;;;;;19.58;15.43;;;;;;;;;;5019784;28;20024;-82
2022/10/20 09:21:49;;;;;;;19.02;14.85;;;;;;;;;;5035471;28;20032;-83
2022/10/20 09:24:14;;;;;;;24.30;15.25;;;;;;;;;;5034834;28;20131;-84
2022/10/20 09:26:44;;;;;;;22.55;14.35;;;;;;;;;;5027985;28;20497;-83
2022/10/20 09:29:09;;;;;;;24.05;15.07;;;;;;;;;;5019110;28;20081;-82
2022/10/20 09:31:36;;;;;;;27.40;16.42;;;;;;;;;;5019330;28;20786;-81
2022/10/20 09:34:17;;;;;;;16.70;15.10;;;;;;;;;;5020834;28;20059;-81
2022/10/20 09:36:43;;;;;;;21.67;16.60;;;;;;;;;;5041116;28;20029;-85
2022/10/20 09:39:16;;;;;;;20.88;15.77;;;;;;;;;;5032999;28;20512;-82
2022/10/20 09:41:42;;;;;;;20.45;15.40;;;;;;;;;;5023054;28;20874;-81
2022/10/20 09:44:12;;;;;;;19.98;15.85;;;;;;;;;;5030351;28;20028;-80
2022/10/20 09:46:42;;;;;;;20.23;16.38;;;;;;;;;;5039347;28;20028;-78
2022/10/20 09:49:20;;;;;;;23.30;17.23;;;;;;;;;;5037730;28;20039;-81
2022/10/20 09:51:46;;;;;;;21.05;16.67;;;;;;;;;;5052653;28;20024;-81
2022/10/20 09:54:16;;;;;;;22.95;16.67;;;;;;;;;;5071744;28;20032;-81
2022/10/20 09:56:41;;;;;;;19.58;15.73;;;;;;;;;;5053474;28;20025;-81
2022/10/20 09:59:29;;;;;;;20.17;16.17;;;;;;;;;;5068780;28;20025;-74
2022/10/20 10:01:56;;;;;;;31.48;16.67;;;;;;;;;;5063085;28;20077;-74
2022/10/20 10:04:35;;;;;;;17.38;15.35;;;;;;;;;;5054160;28;20028;-76
2022/10/20 10:07:01;;;;;;;23.70;17.23;;;;;;;;;;5054244;28;20009;-76
2022/10/20 10:09:30;;;;;;;17.60;15.30;;;;;;;;;;5071565;28;20012;-79
2022/10/20 10:12:01;;;;;;;22.98;16.90;;;;;;;;;;5053194;28;20025;-80
2022/10/20 10:14:27;;;;;;;21.65;16.02;;;;;;;;;;5047452;28;20032;-81
2022/10/20 10:16:52;;;;;;;18.88;16.30;;;;;;;;;;5053149;28;20115;-83
2022/10/20 10:19:19;;;;;;;23.75;17.33;;;;;;;;;;5073655;28;20402;-77
2022/10/20 10:21:47;;;;;;;26.17;16.83;;;;;;;;;;5052091;28;20482;-74
2022/10/20 10:24:30;;;;;;;26.73;18.55;;;;;;;;;;5054100;28;20021;-74
2022/10/20 10:26:56;;;;;;;24.25;16.60;;;;;;;;;;5050982;28;20104;-76
2022/10/20 10:29:29;;;;;;;23.13;17.63;;;;;;;;;;5072198;28;20103;-78
2022/10/20 10:32:02;;;;;;;20.85;17.40;;;;;;;;;;5042286;28;20481;-75
2022/10/20 10:34:50;;;;;;;24.77;18.58;;;;;;;;;;5062799;28;20025;-76
2022/10/20 10:37:16;;;;;;;29.30;19.48;;;;;;;;;;5049444;28;20105;-73
2022/10/20 10:39:42;;;;;;;23.17;19.23;;;;;;;;;;5064761;28;20074;-74
2022/10/20 10:42:07;;;;;;;32.30;20.10;;;;;;;;;;5072631;28;20017;-75
2022/10/20 10:44:51;;;;;;;38.30;20.73;;;;;;;;;;5070800;28;20021;-74
2022/10/20 10:47:27;;;;;;;22.90;20.33;;;;;;;;;;5071003;28;20408;-76
2022/10/20 10:49:58;;;;;;;23.77;20.73;;;;;;;;;;5068048;28;20016;-75
2022/10/20 10:52:24;;;;;;;27.55;20.80;;;;;;;;;;5052764;28;20174;-73
2022/10/20 10:55:07;;;;;;;29.97;20.87;;;;;;;;;;5071045;28;20099;-75
2022/10/20 10:57:51;;;;;;;30.45;19.98;;;;;;;;;;5070740;28;20614;-76
2022/10/20 11:00:20;;;;;;;26.10;20.83;;;;;;;;;;5068722;28;20021;-77
2022/10/20 11:02:49;;;;;;;28.58;22.02;;;;;;;;;;5047437;28;20446;-75
2022/10/20 11:05:22;;;;;;;24.35;21.67;;;;;;;;;;5074344;28;20060;-76
2022/10/20 11:07:50;;;;;;;23.20;20.27;;;;;;;;;;5074769;28;20455;-76
2022/10/20 11:10:23;;;;;;;28.25;23.00;;;;;;;;;;5056964;28;20031;-77
2022/10/20 11:12:57;;;;;;;31.48;23.02;;;;;;;;;;5055817;28;20487;-75
2022/10/20 11:15:22;;;;;;;;;;;;;;;;;;5057151;28;20039;-76
2022/10/20 11:17:58;;;;;;;28.95;22.50;;;;;;;;;;5074116;28;19909;-75
2022/10/20 11:20:28;;;;;;;31.50;24.85;;;;;;;;;;5057016;28;20039;-76
2022/10/20 11:23:05;;;;;;;33.30;25.40;;;;;;;;;;5056376;28;20159;-75
2022/10/20 11:25:34;;;;;;;36.72;24.45;;;;;;;;;;5056835;28;20115;-75
2022/10/20 11:28:00;;;;;;;31.42;24.48;;;;;;;;;;5055226;28;20467;-75
2022/10/20 11:30:26;;;;;;;32.83;26.50;;;;;;;;;;5035902;28;20040;-75
2022/10/20 11:32:51;;;;;;;32.22;25.50;;;;;;;;;;5073614;28;20032;-74
2022/10/20 11:35:28;;;;;;;34.13;24.53;;;;;;;;;;5073882;28;20044;-74
2022/10/20 11:37:59;;;;;;;38.17;27.10;;;;;;;;;;5074423;28;20297;-74
2022/10/20 11:40:29;;;;;;;29.33;26.15;;;;;;;;;;5074720;28;20376;-74
2022/10/20 11:43:07;;;;;;;34.22;28.75;;;;;;;;;;5035918;28;20005;-76
2022/10/20 11:45:44;;;;;;;36.97;26.85;;;;;;;;;;5058418;28;20017;-75
2022/10/20 11:48:24;;;;;;;40.55;29.42;;;;;;;;;;5087066;28;20032;-75
2022/10/20 11:50:55;;;;;;;34.17;28.88;;;;;;;;;;5047299;28;20020;-75
2022/10/20 11:53:35;;;;;;;33.72;27.30;;;;;;;;;;5075345;28;20447;-75
2022/10/20 11:56:03;;;;;;;33.10;26.23;;;;;;;;;;5066356;28;20729;-77
2022/10/20 11:58:40;;;;;;;34.33;27.20;;;;;;;;;;5047882;28;20919;-77
2022/10/20 12:01:18;;;;;;;34.30;25.95;;;;;;;;;;5053787;28;20016;-78
2022/10/20 12:04:09;;;;;;;21.95;19.65;;;;;;;;;;5072491;28;20043;-81
2022/10/20 12:06:40;;;;;;;19.38;17.38;;;;;;;;;;5016737;28;20107;-81
2022/10/20 12:09:21;;;;;;;19.75;14.27;;;;;;;;;;5054181;28;20040;-80
2022/10/20 12:11:55;;;;;;;14.95;12.13;;;;;;;;;;5046455;28;20017;-83
2022/10/20 12:14:33;;;;;;;21.80;12.43;;;;;;;;;;5068394;28;20983;-77
2022/10/20 12:17:01;;;;;;;15.32;11.13;;;;;;;;;;5067651;28;20032;-78
2022/10/20 12:19:30;;;;;;;17.02;12.07;;;;;;;;;;5052783;28;20036;-77
2022/10/20 12:22:00;;;;;;;19.65;13.48;;;;;;;;;;5053477;28;20024;-77
2022/10/20 12:24:30;;;;;;;14.25;11.48;;;;;;;;;;5053514;28;20126;-77
2022/10/20 12:27:01;;;;;;;13.40;9.73;;;;;;;;;;5046612;28;20119;-78
2022/10/20 12:29:29;;;;;;;18.63;8.60;;;;;;;;;;5070770;28;20550;-77
2022/10/20 12:32:13;;;;;;;18.73;8.60;;;;;;;;;;5054746;28;20020;-75
2022/10/20 12:34:40;;;;;;;10.80;8.15;;;;;;;;;;5057911;28;20034;-75
2022/10/20 12:37:15;;;;;;;11.23;7.38;;;;;;;;;;5047561;28;20020;-75
2022/10/20 12:39:41;;;;;;;15.45;8.20;;;;;;;;;;5055080;28;20071;-79
2022/10/20 12:42:15;;;;;;;17.48;7.63;;;;;;;;;;5055628;28;20420;-74
2022/10/20 12:44:40;;;;;;;;;;;;;;;;;;5057844;28;20538;-74
2022/10/20 12:47:06;;;;;;;11.63;7.67;;;;;;;;;;5071295;28;19943;-76
2022/10/20 12:49:37;;;;;;;11.23;7.28;;;;;;;;;;5042117;28;20483;-79
2022/10/20 12:52:03;;;;;;;9.77;7.93;;;;;;;;;;5069005;28;20433;-78
2022/10/20 12:54:29;;;;;;;9.40;6.90;;;;;;;;;;5050427;28;20035;-79
2022/10/20 12:56:58;;;;;;;11.80;6.78;;;;;;;;;;5064918;28;20025;-79
2022/10/20 12:59:23;;;;;;;12.32;7.32;;;;;;;;;;5052199;28;20028;-80
2022/10/20 13:02:07;;;;;;;19.50;6.25;;;;;;;;;;5072528;28;20154;-69
2022/10/20 13:04:51;;;;;;;8.65;5.63;;;;;;;;;;5071775;28;20021;-84
2022/10/20 13:07:36;;;;;;;7.57;5.43;;;;;;;;;;5057558;28;20440;-78
2022/10/20 13:10:21;;;;;;;7.47;4.90;;;;;;;;;;5072202;28;20020;-78
2022/10/20 13:12:47;;;;;;;6.22;4.90;;;;;;;;;;5072243;28;20383;-85
2022/10/20 13:15:16;;;;;;;12.60;5.93;;;;;;;;;;5070084;28;20020;-82
2022/10/20 13:17:51;;;;;;;8.57;5.13;;;;;;;;;;5072860;28;20283;-79
2022/10/20 13:20:21;;;;;;;10.05;5.90;;;;;;;;;;5077410;28;20082;-80
2022/10/20 13:22:50;;;;;;;11.70;6.80;;;;;;;;;;5092000;28;20079;-79
2022/10/20 13:25:34;;;;;;;6.63;4.80;;;;;;;;;;5054621;28;20078;-79
2022/10/20 13:28:06;;;;;;;6.63;4.15;;;;;;;;;;5055455;28;20103;-81
2022/10/20 13:30:32;;;;;;;10.27;4.40;;;;;;;;;;5044568;28;20013;-78
2022/10/20 13:33:02;;;;;;;8.32;4.53;;;;;;;;;;5091252;28;20044;-78
2022/10/20 13:35:41;;;;;;;10.82;4.22;;;;;;;;;;5053879;28;20016;-80
2022/10/20 13:38:18;;;;;;;8.52;3.47;;;;;;;;;;5075256;28;20483;-80
2022/10/20 13:40:53;;;;;;;6.75;3.45;;;;;;;;;;5071979;28;20039;-73
2022/10/20 13:43:33;;;;;;;10.07;3.65;;;;;;;;;;5071427;28;20028;-75
2022/10/20 13:46:12;;;;;;;8.77;3.40;;;;;;;;;;5042486;28;20025;-71
2022/10/20 13:48:43;;;;;;;11.45;3.92;;;;;;;;;;5070113;28;20023;-72
2022/10/20 13:51:12;;;;;;;6.75;3.55;;;;;;;;;;5051483;28;20028;-74
2022/10/20 13:53:40;;;;;;;12.48;4.22;;;;;;;;;;5053874;28;20040;-74
2022/10/20 13:56:14;;;;;;;13.65;3.55;;;;;;;;;;5070664;28;20021;-75
2022/10/20 13:58:40;;;;;;;9.77;3.67;;;;;;;;;;5053898;28;20016;-79
2022/10/20 14:01:17;;;;;;;13.15;3.58;;;;;;;;;;5073184;28;20058;-77
2022/10/20 14:03:43;;;;;;;8.80;3.58;;;;;;;;;;5060663;28;20021;-69
2022/10/20 14:06:27;;;;;;;9.40;3.47;;;;;;;;;;5071358;28;20020;-72
2022/10/20 14:08:53;;;;;;;7.82;3.63;;;;;;;;;;5082663;28;20052;-72
2022/10/20 14:11:19;;;;;;;12.80;3.83;;;;;;;;;;5072591;28;20048;-68
2022/10/20 14:13:44;;;;;;;6.07;3.45;;;;;;;;;;5072083;28;20498;-76
2022/10/20 14:16:21;;;;;;;5.47;2.78;;;;;;;;;;5084318;28;20530;-71
2022/10/20 14:19:20;;;;;;;6.72;2.90;;;;;;;;;;5064057;28;20024;-82
2022/10/20 14:21:49;;;;;;;5.78;2.97;;;;;;;;;;5022874;28;20046;-73
2022/10/20 14:24:29;;;;;;;8.82;3.17;;;;;;;;;;5045545;28;20031;-72
2022/10/20 14:26:55;;;;;;;6.78;3.05;;;;;;;;;;5067439;28;20017;-74
2022/10/20 14:29:22;;;;;;;6.72;3.42;;;;;;;;;;5077338;28;20016;-75